Time;durP1;ratioP1;P1;durP2;ratioP2;P2;SDS_P1;SDS_P2;PMS_P1;PMS_P2;Temp;Humidity;BMP_temperature;BMP_pressure;BME280_temperature;BME280_humidity;BME280_pressure;Samples;Min_cycle;Max_cycle;Signal;HPM_P1;HPM_P2
2023/07/20 00:01:26;;;;;;;0.93;0.40;;;24.90;67.40;;;;;;4954555;28;20023;-72
2023/07/20 00:03:55;;;;;;;0.98;0.50;;;24.60;49.50;;;;;;4954264;28;20082;-71
2023/07/20 00:06:27;;;;;;;0.70;0.45;;;24.50;49.40;;;;;;4954313;29;20598;-73
2023/07/20 00:08:53;;;;;;;0.43;0.40;;;24.50;49.40;;;;;;4954216;29;20035;-71
2023/07/20 00:11:19;;;;;;;0.80;0.60;;;24.50;49.50;;;;;;4954346;29;20571;-73
2023/07/20 00:13:45;;;;;;;0.55;0.32;;;24.50;49.50;;;;;;4954249;29;20151;-72
2023/07/20 00:16:10;;;;;;;1.05;0.52;;;24.50;49.50;;;;;;4954213;29;20028;-72
2023/07/20 00:18:36;;;;;;;0.82;0.52;;;24.50;49.50;;;;;;4954599;29;20110;-70
2023/07/20 00:21:01;;;;;;;0.40;0.40;;;24.20;67.00;;;;;;4954052;29;20035;-72
2023/07/20 00:23:27;;;;;;;0.52;0.38;;;24.50;49.50;;;;;;4954052;29;20126;-71
2023/07/20 00:25:53;;;;;;;0.30;0.30;;;24.50;49.40;;;;;;4953986;29;20031;-70
2023/07/20 00:28:19;;;;;;;0.60;0.40;;;24.50;49.40;;;;;;4954039;29;20062;-72
2023/07/20 00:30:45;;;;;;;0.30;0.20;;;24.40;49.40;;;;;;4954007;28;20055;-73
2023/07/20 00:33:11;;;;;;;0.85;0.50;;;24.40;49.40;;;;;;4953872;29;20045;-73
2023/07/20 00:35:40;;;;;;;0.70;0.30;;;24.40;49.50;;;;;;4953662;28;20023;-72
2023/07/20 00:38:06;;;;;;;0.57;0.40;;;24.40;49.50;;;;;;4954023;29;20027;-72
2023/07/20 00:40:38;;;;;;;1.15;0.50;;;24.40;49.50;;;;;;4953861;29;20031;-73
2023/07/20 00:43:05;;;;;;;0.50;0.50;;;24.40;50.10;;;;;;4953742;29;20478;-72
2023/07/20 00:45:33;;;;;;;0.55;0.55;;;24.40;49.40;;;;;;4954340;29;20054;-72
2023/07/20 00:48:01;;;;;;;1.08;0.50;;;24.40;49.60;;;;;;4953599;29;20074;-72
2023/07/20 00:50:28;;;;;;;0.70;0.50;;;24.40;49.50;;;;;;4953613;29;20089;-71
2023/07/20 00:52:57;;;;;;;0.52;0.52;;;24.40;49.50;;;;;;4953835;29;20027;-71
2023/07/20 00:55:24;;;;;;;1.05;0.40;;;24.30;49.40;;;;;;4953967;29;20395;-72
2023/07/20 00:57:51;;;;;;;0.93;0.40;;;24.30;49.50;;;;;;4953633;29;20050;-72
2023/07/20 01:00:17;;;;;;;0.70;0.50;;;24.30;49.50;;;;;;4953613;29;20119;-71
2023/07/20 01:02:43;;;;;;;0.60;0.47;;;24.30;49.40;;;;;;4953399;28;20638;-73
2023/07/20 01:05:09;;;;;;;0.77;0.60;;;24.30;49.60;;;;;;4953588;29;20102;-73
2023/07/20 01:07:39;;;;;;;1.02;0.50;;;24.20;49.40;;;;;;4953617;29;20147;-71
2023/07/20 01:10:17;;;;;;;1.08;0.43;;;24.20;49.40;;;;;;4952150;29;20023;-71
2023/07/20 01:12:47;;;;;;;0.70;0.45;;;24.20;49.40;;;;;;4953527;29;20032;-72
2023/07/20 01:15:14;;;;;;;1.13;0.50;;;;;;;;;;4953568;29;20019;-71
2023/07/20 01:17:40;;;;;;;0.82;0.40;;;24.20;48.80;;;;;;4953572;29;20371;-70
2023/07/20 01:20:08;;;;;;;0.65;0.47;;;24.20;49.30;;;;;;4953342;29;20043;-70
2023/07/20 01:23:02;;;;;;;1.10;0.50;;;24.20;49.50;;;;;;4953635;29;20379;-70
2023/07/20 01:26:21;;;;;;;1.55;0.40;;;24.10;49.40;;;;;;4953635;28;20035;-71
2023/07/20 01:29:05;;;;;;;0.80;0.32;;;24.20;49.50;;;;;;4948631;29;20088;-71
2023/07/20 01:31:33;;;;;;;0.70;0.50;;;24.10;49.50;;;;;;4953379;28;20023;-71
2023/07/20 01:34:02;;;;;;;0.35;0.30;;;24.10;49.40;;;;;;4953819;29;20394;-71
2023/07/20 01:36:35;;;;;;;0.73;0.30;;;24.10;49.40;;;;;;4953322;29;20121;-71
2023/07/20 01:39:02;;;;;;;0.63;0.40;;;24.10;49.40;;;;;;4953234;29;20023;-71
2023/07/20 01:41:28;;;;;;;0.47;0.35;;;24.10;49.20;;;;;;4953477;29;20066;-71
2023/07/20 01:43:59;;;;;;;1.02;0.50;;;24.10;49.40;;;;;;4953364;29;20402;-73
2023/07/20 01:46:24;;;;;;;0.85;0.60;;;24.10;49.40;;;;;;4953281;29;20493;-72
2023/07/20 01:48:51;;;;;;;0.73;0.52;;;24.00;49.40;;;;;;4955298;28;20031;-73
2023/07/20 01:51:17;;;;;;;1.05;0.50;;;24.10;49.50;;;;;;4956809;29;20109;-73
2023/07/20 01:53:43;;;;;;;1.00;0.50;;;24.00;49.30;;;;;;4956694;29;20190;-72
2023/07/20 01:56:09;;;;;;;0.60;0.52;;;24.00;49.30;;;;;;4956783;29;20054;-72
2023/07/20 01:58:35;;;;;;;0.73;0.50;;;24.00;49.40;;;;;;4956601;29;20034;-71
2023/07/20 02:01:01;;;;;;;0.80;0.40;;;24.00;49.60;;;;;;4957112;29;20023;-71
2023/07/20 02:03:27;;;;;;;1.17;0.65;;;24.00;49.50;;;;;;4956451;28;20347;-72
2023/07/20 02:05:53;;;;;;;1.05;0.55;;;24.00;49.40;;;;;;4956628;29;20545;-72
2023/07/20 02:08:18;;;;;;;0.93;0.68;;;24.00;50.00;;;;;;4956557;29;20023;-72
2023/07/20 02:10:48;;;;;;;0.82;0.63;;;24.00;49.60;;;;;;4956592;29;20114;-73
2023/07/20 02:13:13;;;;;;;0.60;0.52;;;23.90;49.40;;;;;;4956394;29;20502;-73
2023/07/20 02:15:40;;;;;;;0.50;0.40;;;23.90;49.50;;;;;;4956718;28;20024;-73
2023/07/20 02:18:05;;;;;;;0.40;0.40;;;23.90;49.50;;;;;;4956366;29;20027;-73
2023/07/20 02:20:32;;;;;;;0.52;0.32;;;23.90;49.40;;;;;;4956276;29;20051;-73
2023/07/20 02:22:58;;;;;;;1.30;0.57;;;23.90;49.50;;;;;;4956540;29;20023;-73
2023/07/20 02:25:23;;;;;;;1.35;0.30;;;23.90;49.60;;;;;;4956236;29;20086;-73
2023/07/20 02:27:49;;;;;;;1.20;0.60;;;23.90;49.60;;;;;;4956196;29;20371;-73
2023/07/20 02:30:16;;;;;;;0.77;0.40;;;23.90;49.60;;;;;;4956580;29;20505;-73
2023/07/20 02:32:45;;;;;;;0.55;0.40;;;23.90;49.50;;;;;;4956092;29;20031;-73
2023/07/20 02:35:11;;;;;;;2.20;0.40;;;23.80;49.30;;;;;;4956160;29;20023;-72
2023/07/20 02:37:37;;;;;;;0.73;0.50;;;23.80;49.40;;;;;;4955938;29;20486;-73
2023/07/20 02:40:04;;;;;;;0.93;0.40;;;23.80;49.40;;;;;;4956040;29;20035;-73
2023/07/20 02:42:30;;;;;;;0.60;0.38;;;23.80;49.50;;;;;;4955985;29;20537;-71
2023/07/20 02:44:55;;;;;;;0.32;0.20;;;23.80;49.40;;;;;;4955903;29;20091;-70
2023/07/20 02:47:21;;;;;;;0.63;0.40;;;23.80;49.50;;;;;;4955835;29;20478;-71
2023/07/20 02:49:47;;;;;;;0.40;0.30;;;23.80;49.40;;;;;;4955731;29;20032;-70
2023/07/20 02:52:12;;;;;;;0.30;0.30;;;23.80;49.50;;;;;;4955749;29;20027;-70
2023/07/20 02:54:38;;;;;;;0.50;0.50;;;23.70;49.40;;;;;;4955985;29;20430;-70
2023/07/20 02:57:04;;;;;;;0.70;0.50;;;23.70;49.60;;;;;;4955598;29;20505;-71
2023/07/20 02:59:30;;;;;;;0.75;0.47;;;23.70;49.50;;;;;;4954768;28;20532;-71
2023/07/20 03:01:55;;;;;;;1.33;0.55;;;23.70;49.40;;;;;;4955326;28;20474;-70
2023/07/20 03:04:21;;;;;;;0.50;0.45;;;23.70;49.50;;;;;;4955563;29;20042;-71
2023/07/20 03:06:47;;;;;;;1.60;0.55;;;23.70;49.50;;;;;;4955683;29;20031;-70
2023/07/20 03:09:13;;;;;;;0.43;0.40;;;23.70;49.50;;;;;;4955736;29;20398;-71
2023/07/20 03:11:39;;;;;;;0.40;0.30;;;23.60;49.40;;;;;;4955428;29;20015;-70
2023/07/20 03:14:04;;;;;;;0.45;0.30;;;23.60;49.40;;;;;;4955379;29;20043;-70
2023/07/20 03:16:32;;;;;;;0.68;0.43;;;23.60;49.40;;;;;;4955255;29;20028;-71
2023/07/20 03:18:59;;;;;;;0.70;0.40;;;23.60;49.30;;;;;;4955159;29;20023;-71
2023/07/20 03:21:25;;;;;;;0.43;0.43;;;23.60;49.30;;;;;;4955104;29;20019;-71
2023/07/20 03:23:51;;;;;;;0.35;0.32;;;23.60;49.40;;;;;;4955137;29;20586;-71
2023/07/20 03:26:16;;;;;;;0.40;0.30;;;23.60;49.60;;;;;;4955621;29;20028;-71
2023/07/20 03:28:42;;;;;;;0.50;0.40;;;23.60;49.60;;;;;;4955318;29;20035;-71
2023/07/20 03:31:08;;;;;;;0.60;0.40;;;23.60;49.60;;;;;;4955072;29;20075;-71
2023/07/20 03:33:34;;;;;;;0.68;0.50;;;23.60;49.70;;;;;;4954929;29;20098;-71
2023/07/20 03:36:00;;;;;;;0.45;0.30;;;23.60;50.30;;;;;;4954960;29;20051;-71
2023/07/20 03:38:27;;;;;;;0.50;0.40;;;23.50;49.60;;;;;;4955008;29;20079;-72
2023/07/20 03:40:58;;;;;;;0.82;0.50;;;23.50;49.70;;;;;;4954835;29;20026;-72
2023/07/20 03:43:25;;;;;;;0.47;0.30;;;23.50;49.50;;;;;;4954769;29;20340;-72
2023/07/20 03:45:51;;;;;;;0.50;0.40;;;23.50;49.70;;;;;;4954812;29;20020;-72
2023/07/20 03:48:19;;;;;;;0.50;0.50;;;23.50;49.60;;;;;;4954863;29;20359;-72
2023/07/20 03:50:45;;;;;;;0.98;0.70;;;23.50;49.90;;;;;;4954614;29;20074;-73
2023/07/20 03:53:14;;;;;;;1.08;0.93;;;23.60;49.80;;;;;;4954511;29;20042;-73
2023/07/20 03:55:47;;;;;;;1.60;1.50;;;23.50;49.70;;;;;;4955153;29;20094;-71
2023/07/20 03:58:13;;;;;;;1.42;1.33;;;23.50;49.90;;;;;;4954651;29;20019;-72
2023/07/20 04:00:40;;;;;;;2.00;1.90;;;23.50;49.70;;;;;;4954525;29;20386;-72
2023/07/20 04:03:05;;;;;;;2.40;2.30;;;23.50;49.90;;;;;;4954290;28;20448;-72
2023/07/20 04:05:31;;;;;;;3.00;2.90;;;23.50;50.10;;;;;;4954376;29;20023;-72
2023/07/20 04:07:56;;;;;;;3.60;3.40;;;23.50;50.00;;;;;;4954549;29;20035;-73
2023/07/20 04:10:22;;;;;;;4.93;4.63;;;23.40;50.00;;;;;;4954013;28;20094;-71
2023/07/20 04:12:48;;;;;;;4.90;4.60;;;23.40;50.50;;;;;;4954375;29;20046;-71
2023/07/20 04:15:15;;;;;;;5.00;4.70;;;23.40;50.10;;;;;;4954557;29;20051;-74
2023/07/20 04:17:40;;;;;;;5.30;5.00;;;23.40;50.10;;;;;;4954195;29;20078;-73
2023/07/20 04:20:07;;;;;;;6.10;5.70;;;23.40;50.20;;;;;;4954152;29;20027;-73
2023/07/20 04:25:24;;;;;;;6.53;6.13;;;23.40;50.30;;;;;;4954287;29;20055;-72
2023/07/20 04:27:51;;;;;;;7.05;6.55;;;23.40;50.40;;;;;;4953900;29;20024;-73
2023/07/20 04:30:20;;;;;;;7.30;6.80;;;23.40;50.20;;;;;;4936973;29;20059;-73
2023/07/20 04:32:46;;;;;;;7.32;6.82;;;23.40;50.40;;;;;;4953711;29;20119;-72
2023/07/20 04:35:35;;;;;;;7.13;6.63;;;23.30;50.50;;;;;;4953850;29;20106;-72
2023/07/20 04:38:01;;;;;;;6.90;6.50;;;23.30;50.50;;;;;;4953970;29;20422;-73
2023/07/20 04:40:27;;;;;;;6.93;6.43;;;23.30;50.20;;;;;;4953792;29;20062;-71
2023/07/20 04:42:52;;;;;;;6.45;5.95;;;23.30;50.40;;;;;;4953613;29;20023;-72
2023/07/20 04:45:18;;;;;;;6.38;5.97;;;23.30;50.40;;;;;;4953729;29;20031;-71
2023/07/20 04:47:44;;;;;;;5.82;5.43;;;23.30;50.10;;;;;;4952269;29;20484;-71
2023/07/20 04:50:10;;;;;;;5.50;5.10;;;23.30;50.30;;;;;;4953924;29;20110;-71
2023/07/20 04:52:35;;;;;;;6.05;5.65;;;23.30;50.10;;;;;;4953990;29;20023;-70
2023/07/20 04:55:04;;;;;;;6.22;5.75;;;23.20;50.20;;;;;;4952641;29;20062;-70
2023/07/20 04:57:30;;;;;;;4.97;4.68;;;23.20;50.20;;;;;;4953834;29;20054;-71
2023/07/20 04:59:57;;;;;;;4.90;4.60;;;23.20;50.30;;;;;;4953817;29;20106;-71
2023/07/20 05:02:23;;;;;;;4.68;4.38;;;23.20;50.40;;;;;;4953464;28;20242;-71
2023/07/20 05:04:49;;;;;;;4.65;4.30;;;23.20;50.20;;;;;;4953741;29;20027;-72
2023/07/20 05:07:14;;;;;;;4.20;3.90;;;23.20;50.30;;;;;;4953485;29;20027;-72
2023/07/20 05:09:40;;;;;;;4.30;4.00;;;23.20;50.80;;;;;;4953282;29;20076;-71
2023/07/20 05:12:07;;;;;;;3.60;3.40;;;23.20;50.20;;;;;;4953405;29;20027;-71
2023/07/20 05:14:33;;;;;;;3.42;3.22;;;23.20;50.30;;;;;;4953741;29;20350;-71
2023/07/20 05:16:59;;;;;;;3.20;3.00;;;23.20;50.10;;;;;;4953333;29;20429;-72
2023/07/20 05:19:25;;;;;;;3.67;3.38;;;23.20;50.20;;;;;;4953325;29;20158;-71
2023/07/20 05:21:51;;;;;;;3.00;2.80;;;23.20;50.30;;;;;;4953856;28;20051;-78
2023/07/20 05:24:16;;;;;;;2.63;2.45;;;23.10;50.30;;;;;;4956331;29;20062;-72
2023/07/20 05:26:42;;;;;;;2.40;2.30;;;23.10;50.10;;;;;;4957175;29;20039;-72
2023/07/20 05:29:08;;;;;;;2.35;2.25;;;23.10;50.40;;;;;;4957147;29;20030;-71
2023/07/20 05:31:35;;;;;;;2.00;1.90;;;23.10;50.10;;;;;;4957402;29;20047;-72
2023/07/20 05:34:01;;;;;;;1.98;1.88;;;23.10;50.30;;;;;;4957016;28;20035;-72
2023/07/20 05:36:26;;;;;;;1.98;1.85;;;23.10;50.50;;;;;;4957370;29;20042;-73
2023/07/20 05:38:52;;;;;;;1.38;1.27;;;23.10;50.40;;;;;;4957227;29;20019;-72
2023/07/20 05:41:18;;;;;;;1.15;1.10;;;23.10;50.60;;;;;;4956988;29;20505;-72
2023/07/20 05:43:43;;;;;;;1.17;1.08;;;23.10;50.70;;;;;;4957051;29;20037;-72
2023/07/20 05:46:09;;;;;;;0.93;0.88;;;23.10;50.70;;;;;;4956854;29;20019;-72
2023/07/20 05:48:35;;;;;;;1.83;0.75;;;23.10;50.90;;;;;;4957191;29;20031;-72
2023/07/20 05:51:01;;;;;;;1.00;0.88;;;23.10;51.00;;;;;;4956731;29;20090;-73
2023/07/20 05:53:27;;;;;;;2.05;0.77;;;23.10;51.00;;;;;;4956899;29;20485;-72
2023/07/20 05:55:53;;;;;;;0.85;0.55;;;23.10;51.10;;;;;;4956637;29;20026;-71
2023/07/20 05:58:19;;;;;;;0.75;0.60;;;23.00;51.40;;;;;;4956727;29;20498;-71
2023/07/20 06:00:49;;;;;;;1.13;0.50;;;23.10;51.20;;;;;;4956882;29;20027;-72
2023/07/20 06:03:16;;;;;;;1.23;0.60;;;23.10;51.40;;;;;;4954916;28;20051;-72
2023/07/20 06:05:42;;;;;;;0.35;0.35;;;23.10;51.40;;;;;;4956489;29;20117;-72
2023/07/20 06:08:07;;;;;;;1.27;0.30;;;23.00;51.50;;;;;;4956480;29;20065;-71
2023/07/20 06:10:33;;;;;;;0.40;0.30;;;23.00;51.70;;;;;;4956432;29;20023;-71
2023/07/20 06:12:59;;;;;;;1.17;0.32;;;23.00;51.60;;;;;;4956336;29;20039;-71
2023/07/20 06:15:26;;;;;;;1.23;0.50;;;23.10;51.90;;;;;;4956361;29;20043;-72
2023/07/20 06:17:53;;;;;;;0.40;0.35;;;23.00;51.80;;;;;;4956392;29;20035;-73
2023/07/20 06:20:19;;;;;;;0.82;0.40;;;23.10;51.90;;;;;;4956394;29;20020;-70
2023/07/20 06:22:45;;;;;;;1.17;0.40;;;23.10;52.10;;;;;;4956262;29;20053;-70
2023/07/20 06:25:11;;;;;;;1.20;0.30;;;23.10;51.90;;;;;;4956123;29;20026;-70
2023/07/20 06:27:36;;;;;;;2.33;0.45;;;23.10;51.70;;;;;;4956211;29;20031;-70
2023/07/20 06:30:02;;;;;;;0.55;0.30;;;23.10;51.70;;;;;;4956145;29;20023;-71
2023/07/20 06:32:29;;;;;;;0.65;0.40;;;23.10;51.60;;;;;;4956184;29;20114;-70
2023/07/20 06:34:54;;;;;;;0.57;0.30;;;23.10;51.70;;;;;;4955577;28;20537;-70
2023/07/20 06:37:20;;;;;;;1.02;0.30;;;23.10;51.70;;;;;;4956352;29;20034;-71
2023/07/20 06:39:46;;;;;;;0.75;0.45;;;23.10;51.60;;;;;;4955917;29;20061;-71
2023/07/20 06:42:11;;;;;;;1.63;0.55;;;23.10;51.90;;;;;;4956026;29;20039;-72
2023/07/20 06:44:37;;;;;;;2.50;0.52;;;23.10;51.60;;;;;;4955793;29;20506;-72
2023/07/20 06:47:03;;;;;;;0.70;0.40;;;23.10;51.70;;;;;;4955909;29;20027;-71
2023/07/20 06:49:29;;;;;;;0.82;0.38;;;23.10;51.70;;;;;;4955845;29;20034;-72
2023/07/20 06:51:54;;;;;;;0.80;0.50;;;23.10;51.70;;;;;;4955667;29;20529;-72
2023/07/20 06:54:21;;;;;;;0.90;0.50;;;23.10;51.80;;;;;;4955505;29;20478;-72
2023/07/20 06:56:46;;;;;;;0.50;0.30;;;23.20;52.00;;;;;;4955684;29;20106;-70
2023/07/20 06:59:13;;;;;;;0.60;0.30;;;23.10;51.90;;;;;;4955876;29;20038;-72
2023/07/20 07:01:39;;;;;;;1.63;0.55;;;22.80;70.40;;;;;;4955456;28;20019;-71
2023/07/20 07:04:05;;;;;;;0.85;0.40;;;23.20;52.10;;;;;;4955936;28;20117;-71
2023/07/20 07:06:31;;;;;;;0.77;0.40;;;23.20;52.10;;;;;;4955477;29;20019;-70
2023/07/20 07:08:57;;;;;;;0.65;0.40;;;23.20;52.20;;;;;;4955458;29;20050;-70
2023/07/20 07:11:23;;;;;;;1.08;0.40;;;23.20;52.30;;;;;;4955536;29;20102;-71
2023/07/20 07:13:50;;;;;;;0.85;0.40;;;23.20;53.10;;;;;;4955367;29;20039;-72
2023/07/20 07:16:18;;;;;;;1.05;0.32;;;23.20;52.50;;;;;;4955387;29;20027;-74
2023/07/20 07:18:45;;;;;;;2.33;0.75;;;23.20;52.50;;;;;;4955298;29;20031;-73
2023/07/20 07:21:10;;;;;;;0.95;0.50;;;23.20;52.60;;;;;;4955277;29;20019;-74
2023/07/20 07:23:37;;;;;;;1.23;0.65;;;23.20;52.80;;;;;;4955081;29;20031;-72
2023/07/20 07:26:03;;;;;;;1.20;0.45;;;23.20;52.80;;;;;;4955300;29;20394;-70
2023/07/20 07:28:28;;;;;;;1.00;0.63;;;24.00;53.30;;;;;;4955115;29;20027;-71
2023/07/20 07:30:56;;;;;;;1.15;0.43;;;23.10;52.90;;;;;;4954973;29;20019;-71
2023/07/20 07:33:22;;;;;;;0.82;0.40;;;23.20;53.00;;;;;;4955566;28;20047;-72
2023/07/20 07:35:49;;;;;;;1.30;0.50;;;23.20;53.00;;;;;;4954895;29;20390;-71
2023/07/20 07:38:14;;;;;;;0.40;0.35;;;23.20;53.00;;;;;;4954765;29;20030;-71
2023/07/20 07:40:40;;;;;;;0.63;0.50;;;23.20;53.20;;;;;;4954990;29;20023;-71
2023/07/20 07:43:07;;;;;;;1.05;0.32;;;;;;;;;;4954936;29;20509;-72
2023/07/20 07:45:38;;;;;;;0.82;0.60;;;23.20;52.60;;;;;;4954343;28;20095;-72
2023/07/20 07:48:21;;;;;;;1.00;0.40;;;23.20;53.30;;;;;;4953544;29;20086;-71
2023/07/20 07:50:48;;;;;;;0.40;0.30;;;23.30;53.30;;;;;;4955042;29;20102;-71
2023/07/20 07:53:13;;;;;;;0.85;0.38;;;23.30;53.30;;;;;;4954607;29;20465;-71
2023/07/20 07:55:39;;;;;;;2.05;0.57;;;23.20;53.30;;;;;;4954506;29;20027;-70
2023/07/20 07:58:05;;;;;;;2.40;0.55;;;23.20;53.40;;;;;;4954628;29;20019;-70
2023/07/20 08:00:34;;;;;;;1.42;0.50;;;23.20;52.80;;;;;;4954658;29;20106;-70
2023/07/20 08:03:00;;;;;;;0.98;0.50;;;23.20;53.50;;;;;;4954331;28;20577;-70
2023/07/20 08:05:26;;;;;;;4.35;0.70;;;23.20;53.50;;;;;;4953032;29;20027;-70
2023/07/20 08:07:52;;;;;;;0.60;0.40;;;23.20;53.30;;;;;;4954558;29;20446;-71
2023/07/20 08:10:18;;;;;;;0.50;0.50;;;23.20;53.30;;;;;;4954277;29;20024;-71
2023/07/20 08:12:44;;;;;;;0.82;0.40;;;23.20;53.40;;;;;;4954293;29;20039;-70
2023/07/20 08:15:11;;;;;;;0.73;0.50;;;23.30;53.40;;;;;;4954360;29;20020;-69
2023/07/20 08:17:37;;;;;;;2.15;0.50;;;23.20;53.50;;;;;;4954205;29;20027;-71
2023/07/20 08:20:03;;;;;;;1.05;0.60;;;23.20;53.40;;;;;;4954152;29;20023;-70
2023/07/20 08:22:28;;;;;;;1.35;0.63;;;23.20;53.30;;;;;;4954315;29;20019;-71
2023/07/20 08:24:54;;;;;;;0.55;0.40;;;23.20;53.60;;;;;;4954174;29;20390;-71
2023/07/20 08:27:20;;;;;;;1.60;0.30;;;23.30;53.60;;;;;;4954008;29;20027;-73
2023/07/20 08:29:46;;;;;;;1.77;0.68;;;23.20;53.70;;;;;;4955177;29;20024;-71
2023/07/20 08:32:14;;;;;;;1.20;0.73;;;23.20;53.50;;;;;;4954039;28;20043;-69
2023/07/20 08:34:40;;;;;;;1.30;0.60;;;23.30;53.40;;;;;;4953750;29;20031;-71
2023/07/20 08:37:06;;;;;;;1.27;0.60;;;23.30;53.50;;;;;;4954053;29;20038;-71
2023/07/20 08:39:32;;;;;;;1.52;0.60;;;23.30;53.60;;;;;;4953922;29;20035;-71
2023/07/20 08:42:04;;;;;;;2.78;0.70;;;23.30;53.50;;;;;;4936460;29;20513;-71
2023/07/20 08:44:32;;;;;;;1.05;0.80;;;23.30;53.40;;;;;;4953783;29;20027;-69
2023/07/20 08:46:59;;;;;;;1.33;0.93;;;23.40;53.50;;;;;;4953657;29;20023;-71
2023/07/20 08:49:25;;;;;;;0.50;0.50;;;23.40;53.20;;;;;;4953765;29;20015;-71
2023/07/20 08:51:52;;;;;;;1.30;0.88;;;23.50;53.40;;;;;;4953673;29;20053;-70
2023/07/20 08:54:18;;;;;;;1.52;0.55;;;23.50;53.30;;;;;;4953860;29;20073;-70
2023/07/20 08:56:46;;;;;;;2.72;0.60;;;23.50;53.20;;;;;;4953861;29;20019;-70
2023/07/20 08:59:16;;;;;;;2.05;0.85;;;23.50;53.30;;;;;;4953745;29;20079;-70
2023/07/20 09:01:43;;;;;;;0.93;0.55;;;23.50;53.50;;;;;;4953933;28;20106;-71
2023/07/20 09:04:10;;;;;;;0.93;0.70;;;23.50;53.50;;;;;;4953495;28;20050;-71
2023/07/20 09:06:36;;;;;;;0.95;0.60;;;23.50;53.50;;;;;;4953710;29;20532;-71
2023/07/20 09:09:03;;;;;;;1.38;0.80;;;23.50;53.50;;;;;;4953564;29;20027;-71
2023/07/20 09:11:28;;;;;;;0.93;0.60;;;23.50;53.60;;;;;;4953824;29;20382;-71
2023/07/20 09:14:08;;;;;;;2.08;1.00;;;23.50;53.60;;;;;;4953889;28;20027;-71
2023/07/20 09:16:54;;;;;;;2.05;0.95;;;23.50;53.70;;;;;;4953591;29;20027;-70
2023/07/20 09:19:20;;;;;;;2.58;0.70;;;23.60;53.60;;;;;;4953596;29;20130;-70
2023/07/20 09:21:47;;;;;;;1.27;0.77;;;23.60;53.60;;;;;;4953287;29;20494;-70
2023/07/20 09:24:14;;;;;;;2.88;0.90;;;23.60;53.60;;;;;;4953240;29;20090;-70
2023/07/20 09:26:42;;;;;;;1.33;0.60;;;23.70;53.60;;;;;;4953155;29;20498;-70
2023/07/20 09:29:11;;;;;;;1.73;1.00;;;23.70;53.70;;;;;;4953022;29;20042;-70
2023/07/20 09:31:39;;;;;;;0.73;0.68;;;23.70;53.60;;;;;;4953199;29;20086;-70
2023/07/20 09:34:05;;;;;;;1.48;1.00;;;23.80;53.60;;;;;;4953062;29;20046;-69
2023/07/20 09:36:35;;;;;;;0.80;0.60;;;23.80;71.90;;;;;;4953229;29;20031;-70
2023/07/20 09:39:01;;;;;;;1.48;0.73;;;23.90;53.50;;;;;;4953411;29;20498;-73
2023/07/20 09:41:27;;;;;;;1.63;0.85;;;23.90;53.50;;;;;;4953093;29;20462;-75
2023/07/20 09:43:53;;;;;;;1.85;0.70;;;24.00;53.30;;;;;;4953236;29;20034;-72
2023/07/20 09:46:20;;;;;;;1.98;0.60;;;24.00;53.30;;;;;;4935793;29;20030;-73
2023/07/20 09:49:08;;;;;;;1.25;0.68;;;24.10;53.20;;;;;;4952972;29;20474;-72
2023/07/20 09:51:34;;;;;;;1.45;0.70;;;24.10;53.20;;;;;;4953051;29;20019;-72
2023/07/20 09:54:03;;;;;;;0.75;0.65;;;24.10;53.30;;;;;;4953209;29;20036;-73
2023/07/20 09:56:30;;;;;;;0.80;0.68;;;24.10;53.30;;;;;;4953232;29;20343;-72
2023/07/20 09:58:57;;;;;;;1.00;0.65;;;24.10;53.30;;;;;;4952877;29;20019;-72
2023/07/20 10:01:24;;;;;;;1.23;0.50;;;23.80;71.00;;;;;;4953301;28;20316;-73
2023/07/20 10:03:53;;;;;;;0.95;0.50;;;24.10;53.50;;;;;;4952639;28;20118;-72
2023/07/20 10:06:24;;;;;;;3.13;0.80;;;24.10;53.40;;;;;;4952924;29;20051;-76
2023/07/20 10:08:55;;;;;;;0.68;0.55;;;24.20;53.40;;;;;;4953735;28;20027;-78
2023/07/20 10:11:25;;;;;;;0.65;0.65;;;24.20;53.30;;;;;;4956564;29;20055;-70
2023/07/20 10:13:52;;;;;;;;;;;24.30;53.30;;;;;;4957004;29;20035;-69
2023/07/20 10:16:31;;;;;;;0.77;0.50;;;24.40;53.20;;;;;;4956312;29;20027;-69
2023/07/20 10:19:24;;;;;;;0.70;0.57;;;24.40;53.20;;;;;;4956109;29;20074;-70
2023/07/20 10:21:56;;;;;;;2.53;0.55;;;24.40;53.10;;;;;;4956293;29;20030;-69
2023/07/20 10:24:24;;;;;;;0.98;0.70;;;24.40;52.70;;;;;;4956068;29;20500;-72
2023/07/20 10:26:51;;;;;;;0.90;0.55;;;24.40;53.30;;;;;;4956193;29;20046;-72
2023/07/20 10:29:18;;;;;;;1.35;0.63;;;24.50;53.30;;;;;;4956059;29;20027;-73
2023/07/20 10:31:44;;;;;;;1.00;0.68;;;24.50;53.30;;;;;;4955870;28;20023;-71
2023/07/20 10:34:12;;;;;;;0.50;0.50;;;24.50;53.30;;;;;;4956202;29;20068;-72
2023/07/20 10:36:46;;;;;;;0.90;0.52;;;24.50;53.40;;;;;;4955897;29;20015;-72
2023/07/20 10:39:30;;;;;;;1.52;0.70;;;24.50;53.50;;;;;;4956371;29;20027;-71
2023/07/20 10:42:07;;;;;;;0.80;0.52;;;24.50;53.50;;;;;;4956020;29;20207;-71
2023/07/20 10:44:34;;;;;;;1.27;0.55;;;24.60;53.50;;;;;;4955595;29;20059;-72
2023/07/20 10:47:10;;;;;;;1.05;0.68;;;24.60;53.20;;;;;;4955577;29;20058;-72
2023/07/20 10:50:02;;;;;;;1.33;0.57;;;24.70;53.20;;;;;;4955690;29;20034;-73
2023/07/20 10:52:37;;;;;;;1.00;0.70;;;24.80;53.10;;;;;;4955412;29;20446;-72
2023/07/20 10:55:17;;;;;;;1.30;0.60;;;24.90;53.00;;;;;;4955653;29;20601;-70
2023/07/20 10:57:43;;;;;;;3.15;0.75;;;24.90;53.10;;;;;;4955577;29;20055;-73
2023/07/20 11:00:13;;;;;;;1.90;0.60;;;24.90;53.20;;;;;;4955920;29;20086;-73
2023/07/20 11:02:44;;;;;;;1.35;0.40;;;24.90;53.30;;;;;;4969888;28;20046;-73
2023/07/20 11:05:32;;;;;;;0.40;0.30;;;24.50;71.10;;;;;;4994240;28;20065;-73
2023/07/20 11:07:59;;;;;;;0.52;0.52;;;24.80;53.50;;;;;;4994568;28;20034;-74
2023/07/20 11:10:25;;;;;;;1.27;0.40;;;24.80;53.40;;;;;;4994475;28;20410;-74
2023/07/20 11:13:16;;;;;;;1.95;0.45;;;24.80;53.60;;;;;;4994346;28;20038;-74
2023/07/20 11:15:47;;;;;;;0.30;0.30;;;24.80;53.60;;;;;;4994359;28;20031;-73
2023/07/20 11:18:13;;;;;;;0.90;0.68;;;24.80;53.70;;;;;;4994135;28;20030;-74
2023/07/20 11:20:41;;;;;;;1.13;0.68;;;24.80;53.80;;;;;;4992826;28;20022;-74
2023/07/20 11:23:07;;;;;;;1.40;0.80;;;24.80;53.80;;;;;;4993960;28;20540;-73
2023/07/20 11:25:38;;;;;;;0.82;0.57;;;24.90;53.80;;;;;;4993924;28;20026;-75
2023/07/20 11:28:11;;;;;;;1.48;0.70;;;25.00;53.50;;;;;;4993772;28;20026;-72
2023/07/20 11:30:54;;;;;;;0.60;0.52;;;25.10;53.00;;;;;;4992413;28;20039;-71
2023/07/20 11:33:20;;;;;;;0.85;0.50;;;25.30;52.40;;;;;;4993719;28;20065;-73
2023/07/20 11:35:50;;;;;;;0.45;0.40;;;25.50;52.60;;;;;;4993572;28;20018;-71
2023/07/20 11:38:16;;;;;;;0.60;0.60;;;25.50;52.00;;;;;;4975916;28;20030;-72
2023/07/20 11:40:46;;;;;;;0.88;0.40;;;25.70;51.50;;;;;;4993511;28;20022;-72
2023/07/20 11:43:12;;;;;;;1.58;0.60;;;25.70;51.50;;;;;;4975902;28;20058;-72
2023/07/20 11:45:39;;;;;;;0.63;0.32;;;25.70;51.80;;;;;;4993416;28;20030;-74
2023/07/20 11:48:05;;;;;;;1.48;0.50;;;25.70;51.80;;;;;;4975831;28;20022;-73
2023/07/20 11:50:31;;;;;;;1.40;0.50;;;25.60;52.10;;;;;;4993437;28;20041;-75
2023/07/20 11:52:57;;;;;;;0.70;0.57;;;25.60;51.90;;;;;;4993131;28;20038;-76
2023/07/20 11:55:24;;;;;;;0.65;0.38;;;25.50;51.50;;;;;;4993520;28;20022;-74
2023/07/20 11:58:06;;;;;;;3.47;0.68;;;25.50;51.80;;;;;;4993381;28;20034;-73
2023/07/20 12:00:34;;;;;;;0.40;0.40;;;25.50;51.70;;;;;;4993115;28;20505;-78
2023/07/20 12:03:00;;;;;;;3.10;0.40;;;25.40;52.20;;;;;;4992671;28;20053;-70
2023/07/20 12:05:27;;;;;;;0.80;0.38;;;25.50;52.20;;;;;;4992296;28;20482;-73
2023/07/20 12:07:54;;;;;;;0.60;0.43;;;25.40;52.00;;;;;;4992216;28;20496;-73
2023/07/20 12:10:28;;;;;;;0.63;0.40;;;25.40;52.30;;;;;;4992169;28;20027;-78
2023/07/20 12:12:54;;;;;;;1.65;0.55;;;25.30;52.20;;;;;;4992477;28;20085;-73
2023/07/20 12:15:21;;;;;;;2.60;0.65;;;25.40;52.70;;;;;;4992164;28;20495;-73
2023/07/20 12:17:53;;;;;;;1.77;0.30;;;25.40;52.60;;;;;;4992377;28;20026;-73
2023/07/20 12:20:45;;;;;;;0.40;0.40;;;25.40;52.80;;;;;;4992181;28;20497;-73
2023/07/20 12:23:13;;;;;;;0.80;0.35;;;25.30;52.20;;;;;;4987770;28;20416;-70
2023/07/20 12:25:41;;;;;;;0.52;0.40;;;25.40;52.70;;;;;;4991992;28;20030;-71
2023/07/20 12:28:12;;;;;;;1.40;0.35;;;25.40;52.80;;;;;;4992296;28;20034;-70
2023/07/20 12:30:40;;;;;;;0.60;0.60;;;25.40;52.70;;;;;;4991998;28;20022;-71
2023/07/20 12:33:06;;;;;;;0.70;0.40;;;25.30;52.40;;;;;;4991553;28;20042;-70
2023/07/20 12:35:33;;;;;;;0.40;0.30;;;25.40;52.60;;;;;;4991765;28;20018;-71
2023/07/20 12:38:00;;;;;;;0.95;0.63;;;25.40;52.70;;;;;;4991764;28;20026;-71
2023/07/20 12:40:26;;;;;;;0.95;0.60;;;25.40;52.60;;;;;;4992207;28;20496;-71
2023/07/20 12:42:52;;;;;;;0.80;0.60;;;25.40;52.40;;;;;;4992015;28;20029;-74
2023/07/20 12:45:19;;;;;;;1.25;0.60;;;25.60;52.30;;;;;;4991755;28;20023;-73
2023/07/20 12:47:45;;;;;;;0.77;0.52;;;25.70;51.90;;;;;;4991926;28;20057;-73
2023/07/20 12:50:11;;;;;;;0.38;0.35;;;25.70;51.90;;;;;;4991516;28;20023;-73
2023/07/20 12:52:38;;;;;;;0.68;0.30;;;25.80;51.80;;;;;;4991424;28;20030;-73
2023/07/20 12:55:06;;;;;;;0.60;0.50;;;25.80;51.80;;;;;;4974501;28;20026;-80